Aeroporto :
LOGIN :

Iscrizione | Disclaimer

   EN    FR    IT 

 










Sommario :    VFR   VFR Marginale   IFR   IFR Intensivo   IFR Molto Intensivo
Visibilità : 
Base nubi : 
>= 8 km
>= 3000ft
5 / 8 km
1000 / 3000 ft
1500m / 5 km
500 / 1000 ft
800 / 1500m
200 / 500 ft
< 800m
< 200 ft
Simboli :   Temporali  Nebbia  Neve Forte  Precipitazioni Forti  Vento > 20 kt
SIGMETs :   Varie  Temporali  Ghiacco  Turbolenza  Onda orograficha  Ceneri Vulcaniche






- Altitudine del aeroporto : 7 ft
- Codice IATA : ESH


EGKA - Shoreham

ULTIMO METAR :
  • 211520Z 22019KT 9999 SCT020 BKN032 09/06 Q1024

METARs OBSOLETI :
  • 211450Z 22016KT 9999 SCT028 BKN034 09/07 Q1024
  • 211420Z 22019KT 9999 BKN028 10/06 Q1024
  • 211350Z 22019KT 9999 SCT030 10/07 Q1024
  • 211320Z 22017KT 9999 SCT025 10/06 Q1024
  • 211250Z 22018KT 9999 SCT029 10/06 Q1024

TAF TAF EGKA
Valido dal 21 a 15 ore il 21 a 20 ore UTC


211407Z 2115/2120 23020KT 9999 BKN020
PROB30
TEMPO 2115/2120 24025G38KT
TEMPO 2117/2120 8000 -RA BKN012
ATIS : +44 1273 467 372



MetMap, La meteo Aeronautica in un colpo d'occhio ! - Copyright ORBIFLY Dicembre 2007 - Disclaimer

ORBIFLY MET'MAP TEAM :

Programmazione e sviluppo : Alexandra Zaïnal
Concezione : Baudouin d'Aumeries
Aiuto per la programmazione : Marc-Olivier Méhu
Supporto tecnico e logistico : Manuel Goepfert
Aiuto per la traduzione : Arnaldo La Scala

Contatto : metmap@orbifly.com




FONTI E CREDITI :

   NOAA